Time;durP1;ratioP1;P1;durP2;ratioP2;P2;SDS_P1;SDS_P2;PMS_P1;PMS_P2;Temp;Humidity;BMP_temperature;BMP_pressure;BME280_temperature;BME280_humidity;BME280_pressure;Samples;Min_cycle;Max_cycle;Signal;HPM_P1;HPM_P2
2022/02/03 00:00:32;;;;;;;15.30;7.55;;;;;;;-3.50;64.00;99113.78;5032787;28;20037;-52
2022/02/03 00:03:19;;;;;;;12.93;7.03;;;;;;;-3.56;63.87;99108.78;5032392;28;20091;-51
2022/02/03 00:06:01;;;;;;;17.15;8.50;;;;;;;-3.50;63.79;99124.25;5032179;28;20359;-56
2022/02/03 00:16:56;;;;;;;25.27;10.77;;;;;;;-3.62;64.49;99126.41;5052120;28;20366;-53
2022/02/03 00:25:17;;;;;;;18.50;9.50;;;;;;;-3.69;64.24;99111.78;5014499;28;20517;-50
2022/02/03 00:28:04;;;;;;;23.15;9.88;;;;;;;-3.77;64.23;99116.44;5038633;28;20025;-53
2022/02/03 00:49:16;;;;;;;18.40;9.05;;;;;;;-3.99;65.72;99122.38;5031336;28;20053;-53
2022/02/03 00:51:47;;;;;;;17.42;8.38;;;;;;;-3.98;65.41;99134.53;5031576;28;20477;-50
2022/02/03 00:54:14;;;;;;;17.08;8.98;;;;;;;-4.00;65.18;99107.59;5031242;28;20029;-51
2022/02/03 00:56:44;;;;;;;15.80;8.32;;;;;;;-3.93;65.32;99123.94;5031000;28;20025;-59
2022/02/03 00:59:09;;;;;;;20.92;9.57;;;;;;;-3.91;65.15;99127.34;5035080;28;20113;-51
2022/02/03 01:01:48;;;;;;;15.18;8.15;;;;;;;-3.86;65.88;99135.03;5031137;28;20179;-51
2022/02/03 01:04:14;;;;;;;18.27;9.48;;;;;;;-3.85;65.35;99134.16;5031033;28;20037;-53
2022/02/03 01:06:53;;;;;;;22.20;10.52;;;;;;;-3.75;64.90;99140.78;5031596;28;20033;-55
2022/02/03 01:09:23;;;;;;;24.90;10.63;;;;;;;-3.74;65.56;99137.25;5031091;28;20357;-51
2022/02/03 01:11:58;;;;;;;21.63;10.38;;;;;;;-3.70;65.22;99131.00;5031048;28;20025;-51
2022/02/03 01:14:36;;;;;;;25.05;10.98;;;;;;;-3.66;65.22;99130.00;5043767;28;20025;-55
2022/02/03 01:44:29;;;;;;;26.45;12.10;;;;;;;-3.09;63.77;99129.81;5046268;28;20376;-53
2022/02/03 01:47:03;;;;;;;26.38;12.70;;;;;;;-3.00;63.26;99139.13;5035110;28;20155;-54
2022/02/03 01:52:35;;;;;;;22.92;11.65;;;;;;;-2.78;63.70;99146.16;4960153;28;20119;-51
2022/02/03 01:55:06;;;;;;;22.92;11.52;;;;;;;-2.76;62.58;99141.75;5031313;28;20429;-55
2022/02/03 01:57:36;;;;;;;26.42;12.65;;;;;;;-2.70;62.34;99143.28;5030991;28;20025;-56
2022/02/03 02:00:08;;;;;;;24.17;12.32;;;;;;;-2.71;62.85;99144.19;5038393;28;20025;-53
2022/02/03 02:02:37;;;;;;;25.00;12.70;;;;;;;-2.64;62.46;99137.81;5034000;28;20048;-53
2022/02/03 02:05:16;;;;;;;27.50;12.60;;;;;;;-2.71;62.59;99138.94;5031208;28;20487;-56
2022/02/03 02:07:42;;;;;;;27.98;13.18;;;;;;;-2.75;62.47;99143.47;5031388;28;20385;-51
2022/02/03 02:13:15;;;;;;;25.73;12.32;;;;;;;-2.65;61.90;99147.44;5034670;28;20025;-53
2022/02/03 02:38:12;;;;;;;24.23;12.55;;;;;;;-2.83;62.14;99161.22;5034033;28;20030;-54
2022/02/03 02:44:06;;;;;;;23.83;12.48;;;;;;;-2.84;62.32;99169.97;5033752;28;20040;-50
2022/02/03 02:46:43;;;;;;;28.02;11.93;;;;;;;-2.95;62.29;99154.66;5034873;28;20041;-56
2022/02/03 02:49:25;;;;;;;25.02;12.20;;;;;;;-2.80;62.11;99177.69;5033389;28;20052;-55
2022/02/03 02:52:07;;;;;;;25.25;12.70;;;;;;;-2.81;62.39;99181.22;5033340;28;20041;-52
2022/02/03 02:55:12;;;;;;;28.27;12.68;;;;;;;-2.77;61.90;99179.34;5032843;28;20037;-49
2022/02/03 03:36:05;;;;;;;22.77;12.63;;;;;;;-2.67;61.64;99191.19;5031059;28;20032;-53
2022/02/03 03:38:34;;;;;;;26.10;11.75;;;;;;;-2.66;62.25;99192.03;5052893;28;20029;-52
2022/02/03 03:41:01;;;;;;;22.85;11.98;;;;;;;-2.71;61.93;99186.09;5052974;28;20029;-52
2022/02/03 03:43:40;;;;;;;24.20;12.73;;;;;;;-2.67;61.51;99179.84;5051156;28;20040;-54
2022/02/03 03:46:25;;;;;;;27.33;11.82;;;;;;;-2.68;62.22;99186.88;5039407;28;20495;-59
2022/02/03 03:49:12;;;;;;;26.58;12.38;;;;;;;-2.63;61.97;99181.47;5052806;28;20080;-52
2022/02/03 03:51:51;;;;;;;25.35;12.48;;;;;;;-2.64;61.66;99192.84;5053110;28;20079;-55
2022/02/03 03:54:30;;;;;;;27.35;12.75;;;;;;;-2.74;62.17;99184.47;5052454;28;20047;-54
2022/02/03 03:57:16;;;;;;;24.35;11.90;;;;;;;-2.79;62.31;99187.25;5052218;28;20039;-53
2022/02/03 05:04:03;;;;;;;24.92;12.55;;;;;;;-3.01;63.14;99217.72;5005085;28;20033;-56
2022/02/03 05:10:21;;;;;;;25.73;11.27;;;;;;;-3.08;63.12;99219.69;5040246;28;20515;-56
2022/02/03 05:13:28;;;;;;;23.17;11.68;;;;;;;-3.08;63.24;99231.03;4989204;28;20046;-56
2022/02/03 05:32:10;;;;;;;25.38;10.95;;;;;;;-3.47;63.50;99197.44;5049925;28;20029;-53
2022/02/03 05:43:55;;;;;;;25.17;11.75;;;;;;;-3.21;63.08;99220.13;5052487;28;20036;-54
2022/02/03 06:12:57;;;;;;;25.65;12.73;;;;;;;-0.18;54.87;99260.78;5054580;28;20562;-53
2022/02/03 06:23:53;;;;;;;26.55;13.07;;;;;;;0.28;52.97;99260.41;5012926;28;20215;-54
2022/02/03 06:29:06;;;;;;;24.52;13.35;;;;;;;-0.51;55.25;99276.28;5054038;28;20037;-55
2022/02/03 06:31:37;;;;;;;28.55;14.57;;;;;;;-0.75;56.14;99274.66;5054018;28;20098;-55
2022/02/03 06:34:03;;;;;;;32.00;15.20;;;;;;;-0.94;56.14;99273.75;5053474;28;20025;-56
2022/02/03 06:36:28;;;;;;;25.95;14.15;;;;;;;-1.06;56.79;99275.13;5051520;28;20033;-56
2022/02/03 06:38:54;;;;;;;33.08;13.98;;;;;;;-1.06;56.54;99260.19;5042945;28;20033;-52
2022/02/03 06:41:19;;;;;;;27.17;14.07;;;;;;;-0.95;56.36;99261.53;5053527;28;20040;-51
2022/02/03 06:43:45;;;;;;;24.30;13.50;;;;;;;-0.84;55.85;99259.28;5052629;28;20075;-55
2022/02/03 06:46:13;;;;;;;33.35;14.95;;;;;;;-0.74;55.87;99265.00;5053922;28;20044;-56
2022/02/03 06:48:40;;;;;;;28.35;14.95;;;;;;;-0.67;55.14;99260.34;5052044;28;20127;-52
2022/02/03 06:51:16;;;;;;;33.20;16.35;;;;;;;-0.57;55.36;99266.06;5051504;28;20035;-58
2022/02/03 06:53:44;;;;;;;;;;;;;;;-0.24;56.04;99268.09;5052394;28;20112;-55
2022/02/03 06:56:16;;;;;;;32.55;15.25;;;;;;;-0.39;54.53;99273.09;5053332;28;19917;-56
2022/02/03 06:58:51;;;;;;;31.40;15.25;;;;;;;-0.65;54.73;99269.84;5053402;28;20492;-57
2022/02/03 07:01:22;;;;;;;28.27;15.20;;;;;;;-0.87;55.55;99270.75;5054111;28;20048;-55
2022/02/03 07:03:55;;;;;;;33.10;16.00;;;;;;;-1.03;55.85;99269.72;5053557;28;20082;-56
2022/02/03 07:06:21;;;;;;;33.00;16.27;;;;;;;-1.09;55.85;99276.09;5053404;28;20116;-55
2022/02/03 07:08:48;;;;;;;35.95;16.75;;;;;;;-1.14;55.70;99278.06;5040913;28;20128;-57
2022/02/03 07:11:18;;;;;;;34.80;17.60;;;;;;;-1.33;56.04;99281.41;5033425;28;20108;-56
2022/02/03 07:13:44;;;;;;;35.03;17.10;;;;;;;-1.46;56.62;99275.81;5033184;28;20048;-54
2022/02/03 07:16:09;;;;;;;37.70;17.48;;;;;;;-1.60;57.40;99286.84;5032704;28;20431;-56
2022/02/03 07:18:35;;;;;;;36.60;18.20;;;;;;;-1.62;57.79;99272.06;5032983;28;20397;-56
2022/02/03 07:21:00;;;;;;;35.88;17.30;;;;;;;-1.75;56.98;99264.69;5033154;28;20034;-58
2022/02/03 07:23:26;;;;;;;35.47;18.02;;;;;;;-1.61;57.35;99298.28;5036636;28;20025;-51
2022/02/03 07:25:51;;;;;;;35.33;17.15;;;;;;;-1.61;57.34;99287.78;5041427;28;20038;-55
2022/02/03 07:28:17;;;;;;;35.20;17.52;;;;;;;-1.62;56.31;99274.69;5033366;28;20029;-56
2022/02/03 07:30:42;;;;;;;32.60;17.63;;;;;;;-1.72;57.28;99292.56;5033530;28;20039;-55
2022/02/03 07:33:09;;;;;;;35.28;17.50;;;;;;;-1.79;57.42;99298.97;5033463;28;20021;-56
2022/02/03 07:35:35;;;;;;;36.30;17.42;;;;;;;-1.83;57.20;99292.16;5032690;28;20359;-54
2022/02/03 07:38:06;;;;;;;36.75;17.27;;;;;;;-1.78;57.59;99295.44;5033146;28;20021;-54
2022/02/03 07:40:32;;;;;;;38.35;19.13;;;;;;;-1.73;56.69;99290.88;5035486;28;20033;-54
2022/02/03 07:42:58;;;;;;;34.95;17.23;;;;;;;-1.66;56.80;99291.50;5032989;28;20448;-58
2022/02/03 07:45:24;;;;;;;40.28;17.40;;;;;;;-1.60;56.62;99300.00;5032699;28;20037;-61
2022/02/03 07:47:52;;;;;;;34.95;17.55;;;;;;;-1.50;57.23;99302.25;5033074;28;20046;-54
2022/02/03 07:50:19;;;;;;;31.55;17.38;;;;;;;-1.42;56.47;99299.31;5034092;28;20143;-56
2022/02/03 07:52:46;;;;;;;35.28;17.15;;;;;;;-1.36;56.08;99286.81;5032800;28;20025;-56
2022/02/03 07:55:13;;;;;;;38.60;17.40;;;;;;;-1.24;56.48;99298.59;5040225;28;20357;-59
2022/02/03 07:57:50;;;;;;;33.88;16.77;;;;;;;-1.08;56.23;99308.47;5050444;28;20120;-57
2022/02/03 08:00:17;;;;;;;37.95;17.05;;;;;;;-1.02;55.67;99311.69;5051140;28;20495;-57
2022/02/03 08:02:43;;;;;;;34.67;17.33;;;;;;;-0.99;55.01;99301.97;5043033;28;20044;-53
2022/02/03 08:05:16;;;;;;;34.90;16.70;;;;;;;-0.87;55.02;99311.97;5031735;28;20109;-52
2022/02/03 08:07:55;;;;;;;34.35;16.90;;;;;;;-0.73;55.26;99316.66;5032338;28;20029;-57
2022/02/03 08:13:02;;;;;;;35.13;16.60;;;;;;;-0.58;54.36;99317.78;5055580;28;20051;-60
2022/02/03 08:15:30;;;;;;;31.20;16.17;;;;;;;-0.46;54.35;99312.00;5057110;28;20037;-63
2022/02/03 08:18:02;;;;;;;29.65;15.30;;;;;;;-0.54;53.32;99282.53;5061744;28;20498;-64
2022/02/03 08:20:28;;;;;;;35.15;15.02;;;;;;;-0.13;53.19;99317.59;5065001;28;20477;-59
2022/02/03 08:23:11;;;;;;;28.85;14.50;;;;;;;0.05;52.67;99319.41;5047286;28;20022;-54
2022/02/03 08:25:41;;;;;;;30.15;14.48;;;;;;;0.22;52.28;99323.91;5035862;28;20033;-58
2022/02/03 08:31:00;;;;;;;31.92;13.57;;;;;;;0.53;51.28;99322.47;5067614;28;20139;-58
2022/02/03 08:33:26;;;;;;;26.05;13.20;;;;;;;0.84;50.29;99314.88;5057114;28;20037;-56
2022/02/03 08:35:51;;;;;;;26.33;12.85;;;;;;;1.08;49.49;99312.81;5065218;28;20108;-60
2022/02/03 08:40:57;;;;;;;28.02;13.20;;;;;;;1.66;48.85;99321.34;5063811;28;20109;-57
2022/02/03 08:43:24;;;;;;;26.98;13.88;;;;;;;1.96;47.88;99302.19;5041409;28;20032;-58
2022/02/03 08:45:50;;;;;;;28.75;14.23;;;;;;;2.37;46.92;99316.72;5061995;28;20610;-64
2022/02/03 08:48:17;;;;;;;28.20;13.88;;;;;;;2.53;45.82;99308.81;5063355;28;20557;-56
2022/02/03 08:50:43;;;;;;;25.67;13.88;;;;;;;2.57;45.89;99309.47;5054984;28;20060;-56
2022/02/03 08:53:15;;;;;;;30.13;13.65;;;;;;;2.35;46.25;99268.38;5066956;28;20051;-59
2022/02/03 10:00:52;;;;;;;29.10;14.45;;;;;;;0.24;51.79;99300.13;5059235;28;20123;-62
2022/02/03 10:03:31;;;;;;;41.10;19.17;;;;;;;-0.08;51.29;99266.50;5038612;28;20082;-61
2022/02/03 10:06:04;;;;;;;39.78;19.83;;;;;;;0.03;51.14;99310.75;5059694;28;20547;-61
2022/02/03 10:08:30;;;;;;;36.13;18.52;;;;;;;-0.01;51.29;99298.63;5064230;28;20071;-63
2022/02/03 10:11:17;;;;;;;41.78;20.38;;;;;;;0.12;52.06;99312.06;5050292;28;20060;-60
2022/02/03 10:13:57;;;;;;;43.20;20.40;;;;;;;0.16;51.64;99312.81;5045728;28;20190;-59
2022/02/03 10:16:29;;;;;;;43.20;20.77;;;;;;;0.15;51.63;99304.06;5051086;28;20052;-61
2022/02/03 10:19:05;;;;;;;42.00;21.60;;;;;;;0.28;52.06;99306.97;5063330;28;20036;-56
2022/02/03 10:21:30;;;;;;;41.03;21.38;;;;;;;0.39;51.35;99309.94;5044870;28;21209;-55
2022/02/03 10:24:07;;;;;;;43.88;22.27;;;;;;;0.59;51.03;99291.47;5031001;28;20071;-58
2022/02/03 10:26:48;;;;;;;47.08;22.85;;;;;;;0.78;50.20;99287.03;5046068;28;20033;-54
2022/02/03 10:29:19;;;;;;;46.03;22.17;;;;;;;0.97;49.92;99284.38;5048642;28;20074;-53
2022/02/03 10:31:45;;;;;;;41.38;21.27;;;;;;;1.12;49.59;99290.66;5058664;28;20037;-58
2022/02/03 10:34:15;;;;;;;45.28;22.42;;;;;;;1.19;49.24;99292.97;5064853;28;20036;-56
2022/02/03 10:58:48;;;;;;;42.80;22.42;;;;;;;0.57;51.94;99286.31;5053599;28;20337;-56
2022/02/03 11:06:32;;;;;;;45.38;23.58;;;;;;;0.90;51.08;99303.19;5055203;28;20045;-60
2022/02/03 11:09:12;;;;;;;53.47;24.40;;;;;;;0.93;51.71;99301.25;5051974;28;20032;-55
2022/02/03 11:11:43;;;;;;;48.33;25.08;;;;;;;0.92;51.94;99283.72;5052241;28;20442;-59
2022/02/03 11:14:10;;;;;;;46.80;25.33;;;;;;;1.00;51.23;99300.03;5059825;28;20032;-57
2022/02/03 11:16:39;;;;;;;50.15;25.73;;;;;;;0.84;52.03;99293.78;5055759;28;20073;-55
2022/02/03 11:19:07;;;;;;;53.40;25.92;;;;;;;0.77;52.95;99313.47;5046590;28;20029;-57
2022/02/03 11:21:34;;;;;;;46.08;25.65;;;;;;;0.73;52.58;99302.22;5051640;28;20044;-57
2022/02/03 11:24:07;;;;;;;56.42;26.23;;;;;;;0.85;52.91;99306.91;5078593;28;20539;-54
2022/02/03 11:27:47;;;;;;;48.45;25.15;;;;;;;0.96;52.72;99301.09;5070249;28;20033;-58
2022/02/03 11:35:44;;;;;;;42.35;22.63;;;;;;;0.74;53.02;99309.19;5035710;28;20063;-55
2022/02/03 11:57:08;;;;;;;42.05;21.75;;;;;;;0.63;53.75;99314.16;5055085;28;20104;-56
2022/02/03 12:03:17;;;;;;;49.88;24.17;;;;;;;0.85;53.89;99319.22;5057993;28;20174;-54
2022/02/03 12:19:03;;;;;;;49.97;23.55;;;;;;;0.32;54.25;99321.72;5047671;28;20072;-58
2022/02/03 12:21:54;;;;;;;49.47;23.92;;;;;;;0.28;54.84;99314.88;5048833;28;20028;-54
2022/02/03 12:27:19;;;;;;;49.88;24.45;;;;;;;0.08;55.38;99318.41;5029991;28;20040;-58
2022/02/03 12:32:38;;;;;;;51.67;24.63;;;;;;;-0.11;56.03;99335.06;5051991;28;20037;-55
2022/02/03 12:42:54;;;;;;;45.22;23.33;;;;;;;-0.21;55.35;99331.09;5044896;28;20108;-55
2022/02/03 12:45:24;;;;;;;53.10;23.58;;;;;;;-0.27;56.36;99336.63;5051160;28;20032;-52
2022/02/03 12:48:00;;;;;;;48.55;25.10;;;;;;;-0.19;55.66;99339.78;5051770;28;20489;-55
2022/02/03 12:50:31;;;;;;;48.15;25.17;;;;;;;-0.29;55.79;99339.31;5051091;28;20484;-56
2022/02/03 12:52:58;;;;;;;50.63;24.00;;;;;;;-0.51;56.17;99324.47;5050213;28;20524;-53
2022/02/03 12:55:31;;;;;;;48.10;23.15;;;;;;;-0.41;56.17;99338.09;5046828;28;20068;-55
2022/02/03 12:58:00;;;;;;;48.33;23.02;;;;;;;-0.45;56.34;99339.13;5056272;28;20060;-63
2022/02/03 13:00:34;;;;;;;49.28;24.10;;;;;;;-0.53;56.29;99330.72;5063779;28;20059;-57
2022/02/03 13:03:03;;;;;;;47.22;22.75;;;;;;;-0.67;56.73;99333.94;5052172;28;20033;-54
2022/02/03 13:05:33;;;;;;;52.30;25.40;;;;;;;-0.70;56.86;99318.31;5060136;28;20060;-53
2022/02/03 13:08:00;;;;;;;44.55;22.20;;;;;;;-0.68;56.85;99319.09;5060065;28;20033;-55
2022/02/03 13:10:34;;;;;;;48.97;22.90;;;;;;;-0.68;56.10;99332.25;5063789;28;20055;-57
2022/02/03 13:13:20;;;;;;;47.33;22.55;;;;;;;-0.68;56.43;99333.09;5052903;28;20676;-52
2022/02/03 13:15:46;;;;;;;45.08;22.20;;;;;;;-0.85;56.33;99339.06;5048857;28;20021;-55
2022/02/03 13:18:24;;;;;;;44.45;22.77;;;;;;;-1.09;56.79;99322.50;5058121;28;20040;-57
2022/02/03 13:21:17;;;;;;;44.72;21.95;;;;;;;-1.14;57.45;99325.34;5065880;28;20059;-57
2022/02/03 13:23:49;;;;;;;49.25;21.58;;;;;;;-1.10;57.13;99332.19;5057499;28;20054;-55
2022/02/03 13:26:19;;;;;;;37.92;19.10;;;;;;;-1.11;57.08;99324.34;5056710;28;20055;-56
2022/02/03 13:29:00;;;;;;;43.95;19.92;;;;;;;-1.18;58.06;99334.25;5065388;28;20086;-54
2022/02/03 13:34:24;;;;;;;39.70;20.40;;;;;;;-1.22;57.30;99311.63;5052077;28;20041;-53
2022/02/03 13:36:56;;;;;;;39.97;19.67;;;;;;;-1.12;57.26;99338.41;5062142;28;20024;-55
2022/02/03 13:39:26;;;;;;;42.33;21.20;;;;;;;-1.34;57.62;99308.59;5040138;28;20025;-54
2022/02/03 13:42:03;;;;;;;44.60;21.08;;;;;;;-1.19;57.28;99332.56;5057166;28;20473;-65
2022/02/03 13:44:30;;;;;;;45.83;21.27;;;;;;;-1.35;58.42;99338.41;5051584;28;20393;-60
2022/02/03 13:46:56;;;;;;;42.08;20.73;;;;;;;-1.44;57.88;99333.53;5059015;28;20045;-54
2022/02/03 13:49:25;;;;;;;46.38;21.17;;;;;;;-1.49;58.26;99333.69;5047786;28;20396;-57
2022/02/03 13:52:06;;;;;;;44.40;22.02;;;;;;;-1.41;58.24;99338.66;5066924;28;20081;-60
2022/02/03 14:21:47;;;;;;;58.17;26.77;;;;;;;-1.76;59.02;99341.72;5037867;28;20449;-55
2022/02/03 14:27:29;;;;;;;52.72;24.83;;;;;;;-1.77;58.49;99339.13;5037821;28;20044;-55
2022/02/03 14:30:03;;;;;;;61.25;26.70;;;;;;;-1.92;59.70;99346.69;5055112;28;20032;-54
2022/02/03 14:32:32;;;;;;;43.22;19.65;;;;;;;-1.89;59.92;99354.44;5062245;28;20040;-57
2022/02/03 14:34:59;;;;;;;58.72;26.08;;;;;;;-1.99;60.22;99329.44;5058134;28;20051;-54
2022/02/03 14:42:16;;;;;;;56.20;25.77;;;;;;;-1.74;59.35;99349.53;5059077;28;20472;-62
2022/02/03 14:44:43;;;;;;;54.83;26.70;;;;;;;-1.80;59.91;99344.50;5053684;28;20186;-58
2022/02/03 14:47:09;;;;;;;63.03;25.13;;;;;;;-1.66;58.70;99350.09;5069125;28;20053;-53
2022/02/03 14:49:36;;;;;;;56.63;26.83;;;;;;;-1.83;59.60;99339.38;5052801;28;20040;-53
2022/02/03 14:52:53;;;;;;;54.13;27.08;;;;;;;-1.88;60.10;99335.16;5053717;28;20036;-55
2022/02/03 15:00:24;;;;;;;61.95;27.33;;;;;;;-1.87;59.68;99357.00;5057017;28;20033;-52
2022/02/03 15:02:50;;;;;;;57.80;24.67;;;;;;;-1.77;59.11;99353.13;5040042;28;20025;-55
2022/02/03 15:05:24;;;;;;;61.33;27.38;;;;;;;-1.79;59.35;99365.47;5062600;28;20035;-54
2022/02/03 15:07:57;;;;;;;58.17;26.27;;;;;;;-1.93;59.87;99347.59;5058655;28;20064;-60
2022/02/03 15:13:02;;;;;;;56.92;27.60;;;;;;;-2.13;61.26;99358.81;5047808;28;20071;-54
2022/02/03 15:15:28;;;;;;;52.35;22.98;;;;;;;-2.04;60.21;99366.38;5065935;28;20040;-56
2022/02/03 15:17:54;;;;;;;57.20;26.10;;;;;;;-2.17;61.19;99352.84;5061487;28;20036;-51
2022/02/03 15:20:19;;;;;;;56.15;24.40;;;;;;;-2.10;61.00;99365.72;5060120;28;20048;-53
2022/02/03 15:22:45;;;;;;;61.47;25.15;;;;;;;-2.15;61.13;99365.88;5056299;28;20025;-56
2022/02/03 15:25:11;;;;;;;55.97;25.83;;;;;;;-2.21;60.77;99368.72;5054337;28;20030;-53
2022/02/03 15:27:38;;;;;;;54.55;25.60;;;;;;;-2.16;60.65;99366.78;5046807;28;20056;-54
2022/02/03 15:30:05;;;;;;;55.17;26.15;;;;;;;-2.35;62.05;99350.84;5056329;28;20031;-55
2022/02/03 15:32:37;;;;;;;59.33;26.90;;;;;;;-2.51;62.49;99343.50;5061738;28;20082;-54
2022/02/03 15:35:07;;;;;;;60.28;27.25;;;;;;;-2.29;62.38;99366.38;5055007;28;20029;-51
2022/02/03 15:37:34;;;;;;;56.95;24.08;;;;;;;-2.18;60.90;99372.06;5065108;28;20035;-54
2022/02/03 15:40:04;;;;;;;48.10;21.08;;;;;;;-2.22;60.80;99362.59;5062096;28;20029;-57
2022/02/03 15:42:30;;;;;;;53.00;25.63;;;;;;;-2.22;61.30;99372.25;5057829;28;20035;-53
2022/02/03 15:44:58;;;;;;;54.78;25.60;;;;;;;-2.27;61.90;99367.16;5048220;28;20131;-56
2022/02/03 15:47:33;;;;;;;53.00;25.60;;;;;;;-2.15;61.05;99372.91;5066243;28;20410;-58
2022/02/03 16:03:36;;;;;;;54.97;25.10;;;;;;;-2.55;62.03;99377.75;5029043;28;20046;-50
2022/02/03 16:17:05;;;;;;;;;;;;;;;-2.33;61.53;99380.50;5015149;28;20136;-57
2022/02/03 16:19:48;;;;;;;55.95;25.27;;;;;;;-2.42;62.43;99372.94;5064565;28;20368;-56
2022/02/03 16:22:43;;;;;;;57.35;25.90;;;;;;;-2.34;63.27;99374.38;5059751;28;20563;-57
2022/02/03 16:25:17;;;;;;;56.70;23.42;;;;;;;-2.18;62.08;99389.59;5051213;28;20044;-57
2022/02/03 16:54:46;;;;;;;57.38;26.85;;;;;;;-2.54;62.78;99375.06;5058372;28;20097;-55
2022/02/03 16:57:15;;;;;;;57.15;25.80;;;;;;;-2.58;63.00;99370.84;5067632;28;20515;-62
2022/02/03 16:59:54;;;;;;;58.40;27.45;;;;;;;-2.58;62.76;99381.34;5058459;28;20033;-63
2022/02/03 17:02:20;;;;;;;58.22;26.80;;;;;;;-2.67;63.63;99373.75;5057433;28;20037;-61
2022/02/03 17:04:45;;;;;;;61.90;27.20;;;;;;;-2.64;63.18;99384.19;5037975;28;20479;-61
2022/02/03 17:07:11;;;;;;;63.15;28.20;;;;;;;-2.77;64.11;99374.09;5050557;28;20037;-59
2022/02/03 17:09:39;;;;;;;60.30;26.35;;;;;;;-2.65;63.22;99379.84;5050889;28;20036;-59
2022/02/03 17:12:07;;;;;;;64.68;28.65;;;;;;;-2.83;63.09;99347.22;5061221;28;20054;-59
2022/02/03 17:14:32;;;;;;;61.80;27.88;;;;;;;-2.76;63.98;99367.94;5060810;28;20028;-57
2022/02/03 17:16:58;;;;;;;59.50;27.88;;;;;;;-2.66;63.81;99378.09;5055559;28;20051;-59
2022/02/03 17:19:24;;;;;;;63.80;27.15;;;;;;;-2.89;63.78;99341.28;5064710;28;20033;-66
2022/02/03 17:21:50;;;;;;;67.07;28.10;;;;;;;-2.67;63.33;99379.00;5037103;28;20485;-59
2022/02/03 17:24:15;;;;;;;62.15;28.10;;;;;;;-2.71;63.55;99375.66;5028813;28;20108;-61
2022/02/03 17:29:23;;;;;;;63.55;29.60;;;;;;;-2.69;64.43;99384.31;5042520;28;20034;-62
2022/02/03 18:09:13;;;;;;;65.55;30.15;;;;;;;-2.66;65.40;99365.00;5029031;28;20022;-57
2022/02/03 18:17:26;;;;;;;65.10;29.35;;;;;;;-2.54;65.32;99371.59;5050181;28;20385;-54
2022/02/03 18:29:12;;;;;;;63.80;27.85;;;;;;;-2.46;64.29;99364.34;5029924;28;20393;-55
2022/02/03 18:56:55;;;;;;;57.17;26.88;;;;;;;-2.54;65.80;99355.84;5033397;28;20116;-55
2022/02/03 20:03:48;;;;;;;59.38;25.50;;;;;;;-2.36;64.73;99359.63;5033099;28;20495;-56
2022/02/03 20:11:10;;;;;;;58.78;25.85;;;;;;;-2.42;64.88;99373.81;5037155;28;20029;-56
2022/02/03 20:13:35;;;;;;;58.88;26.85;;;;;;;-2.42;65.38;99365.06;5032440;28;20029;-53
2022/02/03 20:16:01;;;;;;;59.28;26.65;;;;;;;-2.40;65.41;99364.13;5031667;28;20087;-59
2022/02/03 20:18:27;;;;;;;58.95;25.58;;;;;;;-2.35;65.26;99377.06;5031900;28;20033;-57
2022/02/03 20:20:52;;;;;;;54.13;24.42;;;;;;;-2.34;65.12;99369.13;5033163;28;20033;-56
2022/02/03 20:23:20;;;;;;;57.40;25.73;;;;;;;-2.46;65.25;99348.59;5031486;28;20099;-52
2022/02/03 20:25:54;;;;;;;55.97;25.02;;;;;;;-2.29;65.39;99371.59;5031313;28;20026;-54
2022/02/03 20:28:20;;;;;;;55.03;25.17;;;;;;;-2.27;65.06;99374.19;5032062;28;20030;-52
2022/02/03 20:30:45;;;;;;;57.25;24.75;;;;;;;-2.30;64.96;99369.91;5031989;28;20033;-57
2022/02/03 20:33:11;;;;;;;56.88;26.05;;;;;;;-2.31;64.95;99361.16;5031557;28;20397;-62
2022/02/03 20:35:36;;;;;;;56.63;24.08;;;;;;;-2.25;64.60;99359.25;5032016;28;20480;-53
2022/02/03 20:38:03;;;;;;;54.70;24.90;;;;;;;-2.25;64.58;99372.38;5032234;28;20066;-54
2022/02/03 20:40:28;;;;;;;58.13;25.20;;;;;;;-2.33;64.70;99367.38;5031652;28;20038;-57
2022/02/03 20:42:54;;;;;;;51.90;24.17;;;;;;;-2.33;65.08;99360.34;5033037;28;20381;-55
2022/02/03 20:45:19;;;;;;;53.58;23.20;;;;;;;-2.36;64.79;99363.09;5039266;28;20024;-57
2022/02/03 20:47:45;;;;;;;61.45;25.63;;;;;;;-2.36;65.17;99363.09;5038741;28;20409;-57
2022/02/03 20:50:19;;;;;;;56.00;24.67;;;;;;;-2.40;65.05;99373.75;5039080;28;20025;-54
2022/02/03 20:52:45;;;;;;;52.63;25.38;;;;;;;-2.42;65.27;99363.31;5039084;28;20064;-56
2022/02/03 20:55:11;;;;;;;48.28;23.13;;;;;;;-2.42;65.63;99383.41;5039061;28;20418;-57
2022/02/03 20:57:37;;;;;;;56.30;23.65;;;;;;;-2.40;65.28;99369.34;5034117;28;20469;-56
2022/02/03 21:05:12;;;;;;;55.92;23.60;;;;;;;-2.42;65.01;99371.19;5050932;28;20067;-51
2022/02/03 21:07:40;;;;;;;48.63;22.25;;;;;;;-2.63;64.77;99352.66;5051676;28;20040;-55
2022/02/03 21:10:09;;;;;;;54.00;23.52;;;;;;;-2.46;64.53;99390.56;5046104;28;20041;-56
2022/02/03 21:12:35;;;;;;;56.28;22.90;;;;;;;-2.53;64.54;99376.78;5030379;28;20458;-53
2022/02/03 21:15:00;;;;;;;46.30;22.13;;;;;;;-2.56;65.35;99389.13;5036365;28;20097;-52
2022/02/03 21:17:29;;;;;;;55.97;22.75;;;;;;;-2.58;65.26;99389.19;5037715;28;20022;-60
2022/02/03 21:20:04;;;;;;;48.85;23.88;;;;;;;-2.62;65.50;99390.22;5042611;28;20033;-54
2022/02/03 21:22:29;;;;;;;55.78;23.02;;;;;;;-2.63;65.12;99383.25;5039441;28;20030;-59
2022/02/03 21:25:01;;;;;;;50.67;23.05;;;;;;;-2.61;64.71;99391.94;5041229;28;20033;-53
2022/02/03 21:27:30;;;;;;;50.38;22.73;;;;;;;-2.70;64.73;99379.97;5044148;28;20029;-60
2022/02/03 21:29:55;;;;;;;55.47;23.25;;;;;;;-2.78;65.23;99374.13;5043397;28;20052;-57
2022/02/03 21:32:21;;;;;;;52.65;23.52;;;;;;;-2.72;64.71;99389.66;5040594;28;20072;-54
2022/02/03 21:34:51;;;;;;;51.85;22.00;;;;;;;-2.70;64.13;99384.34;5041196;28;20033;-56
2022/02/03 21:37:16;;;;;;;51.75;23.42;;;;;;;-2.67;64.10;99386.88;5040129;28;20087;-54
2022/02/03 21:39:42;;;;;;;55.05;23.70;;;;;;;-2.78;64.37;99382.84;5044438;28;20036;-55
2022/02/03 21:42:07;;;;;;;56.22;23.33;;;;;;;-2.68;64.14;99385.16;5041869;28;20025;-52
2022/02/03 21:44:33;;;;;;;49.80;23.23;;;;;;;-2.64;65.16;99397.28;5036676;28;20512;-53
2022/02/03 21:46:58;;;;;;;55.78;23.85;;;;;;;-2.61;64.49;99392.78;5059604;28;20059;-56
2022/02/03 21:49:24;;;;;;;48.40;22.02;;;;;;;-2.61;64.32;99379.66;5053114;28;20040;-53
2022/02/03 21:51:53;;;;;;;51.45;23.13;;;;;;;-2.60;64.10;99396.25;5066014;28;20384;-57
2022/02/03 21:54:19;;;;;;;44.55;21.35;;;;;;;-2.57;63.60;99388.28;5056198;28;20396;-56
2022/02/03 21:56:45;;;;;;;51.55;21.02;;;;;;;-2.55;64.06;99391.72;5042038;28;20037;-64
2022/02/03 21:59:11;;;;;;;48.33;20.85;;;;;;;-2.56;63.28;99390.00;5038811;28;20033;-54
2022/02/03 22:01:40;;;;;;;46.63;20.95;;;;;;;-2.55;63.21;99388.22;5039903;28;20048;-59
2022/02/03 22:04:07;;;;;;;50.90;21.00;;;;;;;-2.59;63.64;99379.63;5031032;28;20041;-59
2022/02/03 22:06:33;;;;;;;47.90;22.52;;;;;;;-2.55;63.32;99382.97;5030696;28;20036;-56
2022/02/03 22:08:58;;;;;;;49.70;22.50;;;;;;;-2.55;63.16;99386.47;5036423;28;20029;-62
2022/02/03 22:11:24;;;;;;;54.00;22.73;;;;;;;-2.54;63.56;99388.19;5050486;28;20037;-57
2022/02/03 22:13:49;;;;;;;49.97;22.17;;;;;;;-2.62;63.34;99382.34;5048946;28;20033;-54
2022/02/03 22:16:21;;;;;;;48.78;22.98;;;;;;;-2.78;63.91;99358.41;5031959;28;20048;-57
2022/02/03 22:18:46;;;;;;;49.38;21.92;;;;;;;-2.69;63.53;99379.06;5040876;28;20500;-56
2022/02/03 22:21:27;;;;;;;50.13;22.83;;;;;;;-2.66;63.71;99388.59;5044191;28;20069;-55
2022/02/03 22:26:49;;;;;;;48.45;22.25;;;;;;;-2.72;63.73;99383.56;5044108;28;20025;-59
2022/02/03 22:38:37;;;;;;;51.10;23.25;;;;;;;-2.89;63.88;99382.38;5050921;28;20032;-55
2022/02/03 22:45:47;;;;;;;53.73;23.57;;;;;;;-2.71;63.36;99370.41;5034645;28;20057;-53
2022/02/03 22:48:26;;;;;;;48.70;21.95;;;;;;;-2.77;63.99;99360.97;5033408;28;20053;-52
2022/02/03 22:50:53;;;;;;;48.83;21.52;;;;;;;-2.79;64.33;99368.03;5033789;28;20039;-55
2022/02/03 22:53:19;;;;;;;50.33;21.45;;;;;;;-2.85;64.19;99368.25;5034710;28;20061;-53
2022/02/03 22:55:46;;;;;;;47.72;21.15;;;;;;;-2.88;64.88;99373.59;5033639;28;20069;-53
2022/02/03 23:01:00;;;;;;;52.97;21.00;;;;;;;-2.82;64.04;99362.03;5033572;28;20129;-55
2022/02/03 23:03:30;;;;;;;51.50;21.88;;;;;;;-2.81;64.60;99371.59;5033890;28;20049;-53